Flag for USA

Past Weather in Sperryville, Virginia, USA — Yesterday and Last 2 Weeks

Currently: 52 °F. Low clouds. (Weather station: warren County Airport, USA). See more current weather

Past Weather in Sperryville — Graph

°F

Sperryville Temperature Yesterday

Maximum temperature yesterday: 70 °F (at 12:55 pm)
Minimum temperature yesterday: 50 °F (at 5:35 am)
Average temperature yesterday: 60 °F

High & Low Weather Summary for the Past Weeks

 TemperatureHumidityPressure
High81 °F (Oct 21, 1:55 pm)100% (Oct 16, 9:35 pm)30.41 "Hg (Oct 16, 9:35 pm)
Low32 °F (Oct 18, 7:35 am)31% (Oct 17, 2:35 pm)29.50 "Hg (Oct 29, 1:35 pm)
Average58 °F78%30.12 "Hg
* Reported Oct 14 1:15 pm — Oct 29 1:35 pm, Sperryville. Weather by CustomWeather, © 2020

Note: Actual official high and low records may vary slightly from our data, if they occured in-between our weather recording intervals... More about our weather records

Sperryville Weather History for the Previous 24 Hours

Scroll right to see more
 ConditionsComfort  
Time TempWeatherWind HumidityBarometerVisibility
1:35 pm
Thu, Oct 29
54 °FLow clouds.9 mph100%29.50 "Hg10 mi
1:15 pm54 °FLow clouds.9 mph100%29.52 "Hg10 mi
12:55 pm55 °FLow clouds.9 mph100%29.54 "Hg10 mi
12:35 pm55 °FLow clouds.8 mph100%29.56 "Hg10 mi
12:15 pm55 °FLow clouds.8 mph100%29.58 "Hg7 mi
11:35 am55 °FLow clouds.6 mph100%29.62 "Hg10 mi
11:15 am55 °FLow clouds.5 mph100%29.63 "Hg5 mi
10:55 am55 °FLow clouds.6 mph100%29.64 "Hg7 mi
10:35 am55 °FLow clouds.6 mph100%29.65 "Hg7 mi
10:15 am55 °FMostly cloudy.5 mph100%29.66 "Hg10 mi
9:55 am55 °FMostly cloudy.3 mph100%29.66 "Hg7 mi
9:35 am55 °FCloudy.No wind100%29.68 "Hg10 mi
9:15 am57 °FCloudy.3 mph100%29.68 "Hg10 mi
8:55 am57 °FCloudy.3 mph100%29.68 "Hg10 mi
8:35 am57 °FCloudy.5 mph100%29.69 "Hg10 mi
8:15 am57 °FMostly cloudy.3 mph100%29.70 "Hg10 mi
7:35 am55 °FMostly cloudy.6 mph100%29.72 "Hg10 mi
7:15 am55 °FMostly cloudy.3 mph100%29.73 "Hg7 mi
6:55 am55 °FLow clouds.3 mph100%29.76 "Hg4 mi
6:35 am55 °FLow clouds.No wind100%29.78 "Hg4 mi
6:15 am55 °FLow clouds.No wind100%29.79 "Hg3 mi
5:55 am55 °FLow clouds.3 mph100%29.80 "Hg3 mi
5:35 am55 °FLow clouds.6 mph100%29.80 "Hg3 mi
4:55 am55 °FLow clouds.5 mph100%29.81 "Hg2 mi
4:35 am55 °FLow clouds.3 mph100%29.83 "Hg3 mi
4:15 am55 °FLow clouds.No wind100%29.85 "Hg3 mi
2:35 am57 °FOvercast.No wind100%29.90 "Hg4 mi
2:15 am59 °FOvercast.No wind88%29.90 "Hg10 mi
1:35 am59 °FMostly cloudy.No wind88%29.92 "Hg10 mi
1:15 am59 °FMostly cloudy.No wind88%29.93 "Hg7 mi
12:55 am59 °FMostly cloudy.5 mph88%29.94 "Hg10 mi
12:35 am59 °FOvercast.No wind88%29.94 "Hg10 mi
12:15 am61 °FOvercast.3 mph83%29.95 "Hg10 mi
11:55 pm
Wed, Oct 28
61 °FMostly cloudy.5 mph83%29.95 "Hg10 mi
11:35 pm61 °FOvercast.3 mph94%29.96 "Hg10 mi
11:15 pm63 °FOvercast.5 mph88%29.97 "Hg10 mi
10:35 pm63 °FOvercast.No wind94%29.97 "Hg10 mi
10:15 pm63 °FMostly cloudy.No wind100%29.96 "Hg10 mi
9:55 pm63 °FMostly cloudy.No wind100%29.97 "Hg10 mi
9:35 pm63 °FOvercast.No wind100%29.97 "Hg10 mi
9:15 pm63 °FOvercast.No wind100%29.96 "Hg10 mi
8:55 pm64 °FOvercast.No wind94%29.97 "Hg10 mi
8:35 pm64 °FMostly cloudy.No wind94%29.98 "Hg10 mi
8:15 pm64 °FOvercast.No wind94%29.98 "Hg10 mi
7:55 pm64 °FMostly cloudy.No wind94%29.98 "Hg10 mi
7:35 pm64 °FOvercast.No wind94%29.98 "Hg10 mi
7:15 pm64 °FMostly cloudy.No wind94%29.97 "Hg10 mi
6:55 pm64 °FMostly cloudy.No wind88%29.97 "Hg10 mi
6:35 pm64 °FOvercast.No wind88%29.96 "Hg10 mi
6:15 pm66 °FPartly sunny.No wind83%29.96 "Hg10 mi
5:55 pm68 °FScattered clouds.No wind78%29.96 "Hg10 mi
5:35 pm68 °FBroken clouds.No wind78%29.96 "Hg10 mi
5:15 pm68 °FBroken clouds.3 mph83%29.96 "Hg10 mi
4:55 pm68 °FMostly cloudy.No wind78%29.96 "Hg10 mi
4:35 pm68 °FMostly cloudy.No wind78%29.96 "Hg10 mi
4:15 pm68 °FOvercast.No wind78%29.95 "Hg10 mi
Weather by CustomWeather, © 2020

See weather overview